Laverton, Australia
Current Conditions -  °F | °C
As of 8:00 PM on Sunday 25 Jan 2015 (Local Time) from YPKG Reporting Station
Clear Clear  
Wind Chill: 81°   Ceiling: Unl
Heat Index: 81°   Visibility: 6mi
Dew Point: 37°   Wind: 13mph
Humidity: 21%   Direction: 120°ESE
Pressure: 29.94"   Gusts: NA
Location:  28.63°S, 122.4°E
Report Text: YPKG 251200Z AUTO 12011KT 9999 // NCD 27/03 Q1014
Loading
Personal Weather Stations






























Interactive Weather Map New forecast layout! Learn more

10-Day Weather Forecast

Advertisements
Track Severe Weather on mobile